Time,TemperatureF,DewpointF,PressureIn,WindDirection,WindDirectionDegrees,WindSpeedMPH,WindSpeedGustMPH,Humidity,HourlyPrecipIn,Conditions,Clouds,dailyrainin,SoftwareType,DateUTC
2013-05-03 00:02:00,36.0,21.0,30.47,North,359,7.0,17.0,53,0.00,,,0.00,,2013-05-03 05:02:00,
2013-05-03 00:12:00,36.0,21.0,30.47,North,359,7.0,17.0,53,0.00,,,0.00,,2013-05-03 05:12:00,
2013-05-03 00:21:00,36.0,21.0,30.47,North,351,4.0,10.0,54,0.00,,,0.00,,2013-05-03 05:21:00,
2013-05-03 00:32:00,36.0,21.0,30.47,North,351,4.0,10.0,54,0.00,,,0.00,,2013-05-03 05:32:00,
2013-05-03 00:42:00,36.0,21.0,30.47,North,351,4.0,10.0,54,0.00,,,0.00,,2013-05-03 05:42:00,
2013-05-03 00:52:00,35.0,21.0,30.46,North,352,2.0,11.0,56,0.00,,,0.00,,2013-05-03 05:52:00,
2013-05-03 01:01:00,35.0,21.0,30.46,North,352,2.0,11.0,56,0.00,,,0.00,,2013-05-03 06:01:00,
2013-05-03 01:12:00,35.0,21.0,30.46,North,352,2.0,11.0,56,0.00,,,0.00,,2013-05-03 06:12:00,
2013-05-03 01:21:00,34.0,21.0,30.46,NW,324,4.0,15.0,58,0.00,,,0.00,,2013-05-03 06:21:00,
2013-05-03 01:32:00,34.0,21.0,30.46,NW,324,4.0,15.0,58,0.00,,,0.00,,2013-05-03 06:32:00,
2013-05-03 01:42:00,34.0,21.0,30.46,NW,324,4.0,15.0,58,0.00,,,0.00,,2013-05-03 06:42:00,
2013-05-03 01:52:00,34.0,21.0,30.46,NNW,330,3.0,9.0,59,0.00,,,0.00,,2013-05-03 06:52:00,
2013-05-03 02:01:00,34.0,21.0,30.46,NNW,330,3.0,9.0,59,0.00,,,0.00,,2013-05-03 07:01:00,
2013-05-03 02:11:00,34.0,21.0,30.46,NNW,330,3.0,9.0,59,0.00,,,0.00,,2013-05-03 07:11:00,
2013-05-03 02:21:00,33.0,20.0,30.44,North,357,5.0,9.0,59,0.00,,,0.00,,2013-05-03 07:21:00,
2013-05-03 02:31:00,33.0,20.0,30.44,North,357,5.0,9.0,59,0.00,,,0.00,,2013-05-03 07:31:00,
2013-05-03 02:42:00,33.0,20.0,30.44,North,357,5.0,9.0,59,0.00,,,0.00,,2013-05-03 07:42:00,
2013-05-03 02:52:00,33.0,21.0,30.42,North,350,4.0,9.0,60,0.00,,,0.00,,2013-05-03 07:52:00,
2013-05-03 03:01:00,33.0,21.0,30.42,North,350,4.0,9.0,60,0.00,,,0.00,,2013-05-03 08:01:00,
2013-05-03 03:11:00,33.0,21.0,30.42,North,350,4.0,9.0,60,0.00,,,0.00,,2013-05-03 08:11:00,
2013-05-03 03:21:00,33.0,21.0,30.43,North,353,5.0,12.0,61,0.00,,,0.00,,2013-05-03 08:21:00,
2013-05-03 03:32:00,33.0,21.0,30.43,North,353,5.0,12.0,61,0.00,,,0.00,,2013-05-03 08:32:00,
2013-05-03 03:42:00,33.0,21.0,30.43,North,353,5.0,12.0,61,0.00,,,0.00,,2013-05-03 08:42:00,
2013-05-03 03:53:00,32.0,20.0,30.41,NNW,341,4.0,11.0,61,0.00,,,0.00,,2013-05-03 08:53:00,
2013-05-03 04:01:00,32.0,20.0,30.41,NNW,341,4.0,11.0,61,0.00,,,0.00,,2013-05-03 09:01:00,
2013-05-03 04:12:00,32.0,20.0,30.41,NNW,341,4.0,11.0,61,0.00,,,0.00,,2013-05-03 09:12:00,
2013-05-03 04:21:00,32.0,20.0,30.41,North,351,4.0,11.0,62,0.00,,,0.00,,2013-05-03 09:21:00,
2013-05-03 04:32:00,32.0,20.0,30.41,North,351,4.0,11.0,62,0.00,,,0.00,,2013-05-03 09:32:00,
2013-05-03 04:42:00,32.0,20.0,30.41,North,351,4.0,11.0,62,0.00,,,0.00,,2013-05-03 09:42:00,
2013-05-03 04:53:00,32.0,21.0,30.40,North,354,2.0,9.0,63,0.00,,,0.00,,2013-05-03 09:53:00,
2013-05-03 05:02:00,32.0,21.0,30.40,North,354,2.0,9.0,63,0.00,,,0.00,,2013-05-03 10:02:00,
2013-05-03 05:12:00,32.0,21.0,30.40,North,354,2.0,9.0,63,0.00,,,0.00,,2013-05-03 10:12:00,
2013-05-03 05:22:00,31.0,20.0,30.40,North,0,3.0,10.0,64,0.00,,,0.00,,2013-05-03 10:22:00,
2013-05-03 05:32:00,31.0,20.0,30.40,North,0,3.0,10.0,64,0.00,,,0.00,,2013-05-03 10:32:00,
2013-05-03 05:42:00,31.0,20.0,30.40,North,0,3.0,10.0,64,0.00,,,0.00,,2013-05-03 10:42:00,
2013-05-03 05:52:00,31.0,20.0,30.40,NNW,331,5.0,12.0,64,0.00,,,0.00,,2013-05-03 10:52:00,
2013-05-03 06:02:00,31.0,20.0,30.40,NNW,331,5.0,12.0,64,0.00,,,0.00,,2013-05-03 11:02:00,
2013-05-03 06:11:00,31.0,20.0,30.40,NNW,331,5.0,12.0,64,0.00,,,0.00,,2013-05-03 11:11:00,
2013-05-03 06:22:00,30.0,20.0,30.39,NNW,344,5.0,7.0,65,0.00,,,0.00,,2013-05-03 11:22:00,
2013-05-03 06:31:00,30.0,20.0,30.39,NNW,344,5.0,7.0,65,0.00,,,0.00,,2013-05-03 11:31:00,
2013-05-03 06:42:00,30.0,20.0,30.39,NNW,344,5.0,7.0,65,0.00,,,0.00,,2013-05-03 11:42:00,
2013-05-03 06:52:00,31.0,21.0,30.38,NNW,347,6.0,14.0,65,0.00,,,0.00,,2013-05-03 11:52:00,
2013-05-03 07:01:00,31.0,21.0,30.38,NNW,347,6.0,14.0,65,0.00,,,0.00,,2013-05-03 12:01:00,
2013-05-03 07:11:00,31.0,21.0,30.38,NNW,347,6.0,14.0,65,0.00,,,0.00,,2013-05-03 12:11:00,
2013-05-03 07:21:00,31.0,20.0,30.38,North,349,7.0,15.0,64,0.00,,,0.00,,2013-05-03 12:21:00,
2013-05-03 07:32:00,31.0,20.0,30.38,North,349,7.0,15.0,64,0.00,,,0.00,,2013-05-03 12:32:00,
2013-05-03 07:42:00,31.0,20.0,30.38,North,349,7.0,15.0,64,0.00,,,0.00,,2013-05-03 12:42:00,
2013-05-03 07:52:00,32.0,21.0,30.38,NNW,338,6.0,13.0,63,0.00,,,0.00,,2013-05-03 12:52:00,
2013-05-03 08:01:00,32.0,21.0,30.38,NNW,338,6.0,13.0,63,0.00,,,0.00,,2013-05-03 13:01:00,
2013-05-03 08:11:00,32.0,21.0,30.38,NNW,338,6.0,13.0,63,0.00,,,0.00,,2013-05-03 13:11:00,
2013-05-03 08:22:00,32.0,20.0,30.36,NNW,348,10.0,20.0,62,0.00,,,0.00,,2013-05-03 13:22:00,
2013-05-03 08:32:00,32.0,20.0,30.36,NNW,348,10.0,20.0,62,0.00,,,0.00,,2013-05-03 13:32:00,
2013-05-03 08:42:00,32.0,20.0,30.36,NNW,348,10.0,20.0,62,0.00,,,0.00,,2013-05-03 13:42:00,
2013-05-03 08:52:00,33.0,21.0,30.36,NNE,22,5.0,11.0,62,0.00,,,0.00,,2013-05-03 13:52:00,
2013-05-03 09:02:00,33.0,21.0,30.36,NNE,22,5.0,11.0,62,0.00,,,0.00,,2013-05-03 14:02:00,
2013-05-03 09:11:00,33.0,21.0,30.36,NNE,22,5.0,11.0,62,0.00,,,0.00,,2013-05-03 14:11:00,
2013-05-03 09:22:00,34.0,22.0,30.35,NNE,15,7.0,16.0,61,0.00,,,0.00,,2013-05-03 14:22:00,
2013-05-03 09:32:00,34.0,22.0,30.35,NNE,15,7.0,16.0,61,0.00,,,0.00,,2013-05-03 14:32:00,
2013-05-03 09:42:00,34.0,22.0,30.35,NNE,15,7.0,16.0,61,0.00,,,0.00,,2013-05-03 14:42:00,
2013-05-03 09:52:00,34.0,23.0,30.34,NE,46,9.0,16.0,63,0.00,,,0.00,,2013-05-03 14:52:00,
2013-05-03 10:01:00,34.0,23.0,30.34,NE,46,9.0,16.0,63,0.00,,,0.00,,2013-05-03 15:01:00,
2013-05-03 10:11:00,34.0,23.0,30.34,NE,46,9.0,16.0,63,0.00,,,0.00,,2013-05-03 15:11:00,
2013-05-03 10:22:00,33.0,24.0,30.33,NNE,28,9.0,16.0,70,0.00,,,0.00,,2013-05-03 15:22:00,
2013-05-03 10:32:00,33.0,24.0,30.33,NNE,28,9.0,16.0,70,0.00,,,0.00,,2013-05-03 15:32:00,
2013-05-03 10:43:00,33.0,24.0,30.33,NNE,28,9.0,16.0,70,0.00,,,0.00,,2013-05-03 15:43:00,
2013-05-03 10:53:00,32.0,27.0,30.34,North,349,4.0,13.0,80,0.00,,,0.00,,2013-05-03 15:53:00,
2013-05-03 11:03:00,32.0,27.0,30.34,North,349,4.0,13.0,80,0.00,,,0.00,,2013-05-03 16:03:00,
2013-05-03 11:13:00,32.0,27.0,30.34,North,349,4.0,13.0,80,0.00,,,0.00,,2013-05-03 16:13:00,
2013-05-03 11:22:00,33.0,28.0,30.33,NNW,330,7.0,16.0,82,0.00,,,0.00,,2013-05-03 16:22:00,
2013-05-03 11:32:00,33.0,28.0,30.33,NNW,330,7.0,16.0,82,0.00,,,0.00,,2013-05-03 16:32:00,
2013-05-03 11:42:00,33.0,28.0,30.33,NNW,330,7.0,16.0,82,0.00,,,0.00,,2013-05-03 16:42:00,
2013-05-03 11:52:00,33.0,28.0,30.32,North,5,7.0,15.0,82,0.00,,,0.00,,2013-05-03 16:52:00,
2013-05-03 12:02:00,33.0,28.0,30.32,North,5,7.0,15.0,82,0.00,,,0.00,,2013-05-03 17:02:00,
2013-05-03 12:12:00,33.0,28.0,30.32,North,5,7.0,15.0,82,0.00,,,0.00,,2013-05-03 17:12:00,
2013-05-03 12:23:00,35.0,29.0,30.30,North,0,5.0,20.0,79,0.00,,,0.00,,2013-05-03 17:23:00,
2013-05-03 12:32:00,35.0,29.0,30.30,North,0,5.0,20.0,79,0.00,,,0.00,,2013-05-03 17:32:00,
2013-05-03 12:42:00,35.0,29.0,30.30,North,0,5.0,20.0,79,0.00,,,0.00,,2013-05-03 17:42:00,
2013-05-03 12:52:00,35.0,29.0,30.30,North,359,9.0,18.0,77,0.00,,,0.00,,2013-05-03 17:52:00,
2013-05-03 13:01:00,35.0,29.0,30.30,North,359,9.0,18.0,77,0.00,,,0.00,,2013-05-03 18:01:00,
2013-05-03 13:12:00,35.0,29.0,30.30,North,359,9.0,18.0,77,0.00,,,0.00,,2013-05-03 18:12:00,
2013-05-03 13:21:00,36.0,30.0,30.27,North,2,12.0,18.0,78,0.00,,,0.00,,2013-05-03 18:21:00,
2013-05-03 13:32:00,36.0,30.0,30.27,North,2,12.0,18.0,78,0.00,,,0.00,,2013-05-03 18:32:00,
2013-05-03 13:42:00,36.0,30.0,30.27,North,2,12.0,18.0,78,0.00,,,0.00,,2013-05-03 18:42:00,
2013-05-03 13:52:00,37.0,30.0,30.27,North,3,15.0,28.0,75,0.00,,,0.00,,2013-05-03 18:52:00,
2013-05-03 14:01:00,37.0,30.0,30.27,North,3,15.0,28.0,75,0.00,,,0.00,,2013-05-03 19:01:00,
2013-05-03 14:11:00,37.0,30.0,30.27,North,3,15.0,28.0,75,0.00,,,0.00,,2013-05-03 19:11:00,
2013-05-03 14:21:00,36.0,29.0,30.25,North,358,14.0,25.0,75,0.00,,,0.00,,2013-05-03 19:21:00,
2013-05-03 14:32:00,36.0,29.0,30.25,North,358,14.0,25.0,75,0.00,,,0.00,,2013-05-03 19:32:00,
2013-05-03 14:42:00,36.0,29.0,30.25,North,358,14.0,25.0,75,0.00,,,0.00,,2013-05-03 19:42:00,
2013-05-03 14:52:00,36.0,29.0,30.26,NNE,17,9.0,22.0,77,0.00,,,0.00,,2013-05-03 19:52:00,
2013-05-03 15:02:00,36.0,29.0,30.26,NNE,17,9.0,22.0,77,0.00,,,0.00,,2013-05-03 20:02:00,
2013-05-03 15:11:00,36.0,29.0,30.26,NNE,17,9.0,22.0,77,0.00,,,0.00,,2013-05-03 20:11:00,
2013-05-03 15:21:00,36.0,29.0,30.25,NNE,23,14.0,26.0,77,0.00,,,0.00,,2013-05-03 20:21:00,
2013-05-03 15:31:00,36.0,29.0,30.25,NNE,23,14.0,26.0,77,0.00,,,0.00,,2013-05-03 20:31:00,
2013-05-03 15:42:00,36.0,29.0,30.25,NNE,23,14.0,26.0,77,0.00,,,0.00,,2013-05-03 20:42:00,
2013-05-03 15:52:00,36.0,30.0,30.25,NNE,23,11.0,21.0,80,0.00,,,0.00,,2013-05-03 20:52:00,
2013-05-03 16:01:00,36.0,30.0,30.25,NNE,23,11.0,21.0,80,0.00,,,0.00,,2013-05-03 21:01:00,
2013-05-03 16:11:00,36.0,30.0,30.25,NNE,23,11.0,21.0,80,0.00,,,0.00,,2013-05-03 21:11:00,
2013-05-03 16:21:00,36.0,31.0,30.24,NNE,17,7.0,16.0,83,0.00,,,0.00,,2013-05-03 21:21:00,
2013-05-03 16:33:00,36.0,31.0,30.24,NNE,17,7.0,16.0,83,0.00,,,0.00,,2013-05-03 21:33:00,
2013-05-03 16:43:00,36.0,31.0,30.24,NNE,17,7.0,16.0,83,0.00,,,0.00,,2013-05-03 21:43:00,
2013-05-03 16:53:00,35.0,30.0,30.24,NNE,17,11.0,20.0,83,0.00,,,0.00,,2013-05-03 21:53:00,
2013-05-03 17:02:00,35.0,30.0,30.24,NNE,17,11.0,20.0,83,0.00,,,0.00,,2013-05-03 22:02:00,
2013-05-03 17:13:00,35.0,30.0,30.24,NNE,17,11.0,20.0,83,0.00,,,0.00,,2013-05-03 22:13:00,
2013-05-03 17:22:00,35.0,30.0,30.23,NE,36,13.0,28.0,82,0.00,,,0.00,,2013-05-03 22:22:00,
2013-05-03 17:32:00,35.0,30.0,30.23,NE,36,13.0,28.0,82,0.00,,,0.00,,2013-05-03 22:32:00,
2013-05-03 17:42:00,35.0,30.0,30.23,NE,36,13.0,28.0,82,0.00,,,0.00,,2013-05-03 22:42:00,
2013-05-03 17:52:00,35.0,30.0,30.23,NE,38,8.0,19.0,83,0.00,,,0.00,,2013-05-03 22:52:00,
2013-05-03 18:01:00,35.0,30.0,30.23,NE,38,8.0,19.0,83,0.00,,,0.00,,2013-05-03 23:01:00,
2013-05-03 18:11:00,35.0,30.0,30.23,NE,38,8.0,19.0,83,0.00,,,0.00,,2013-05-03 23:11:00,
2013-05-03 18:21:00,35.0,30.0,30.24,NNE,26,9.0,17.0,83,0.00,,,0.00,,2013-05-03 23:21:00,
2013-05-03 18:31:00,35.0,30.0,30.24,NNE,26,9.0,17.0,83,0.00,,,0.00,,2013-05-03 23:31:00,
2013-05-03 18:41:00,35.0,30.0,30.24,NNE,26,9.0,17.0,83,0.00,,,0.00,,2013-05-03 23:41:00,
2013-05-03 18:52:00,35.0,31.0,30.24,NNE,23,9.0,17.0,84,0.00,,,0.00,,2013-05-03 23:52:00,
2013-05-03 19:01:00,35.0,31.0,30.24,NNE,23,9.0,17.0,84,0.00,,,0.00,,2013-05-04 00:01:00,
2013-05-03 19:11:00,35.0,31.0,30.24,NNE,23,9.0,17.0,84,0.00,,,0.00,,2013-05-04 00:11:00,
2013-05-03 19:22:00,35.0,30.0,30.24,North,5,9.0,18.0,83,0.00,,,0.00,,2013-05-04 00:22:00,
2013-05-03 19:31:00,35.0,30.0,30.24,North,5,9.0,18.0,83,0.00,,,0.00,,2013-05-04 00:31:00,
2013-05-03 19:42:00,35.0,30.0,30.24,North,5,9.0,18.0,83,0.00,,,0.00,,2013-05-04 00:42:00,
2013-05-03 19:52:00,34.0,29.0,30.24,North,2,4.0,17.0,83,0.00,,,0.00,,2013-05-04 00:52:00,
2013-05-03 20:01:00,34.0,29.0,30.24,North,2,4.0,17.0,83,0.00,,,0.00,,2013-05-04 01:01:00,
2013-05-03 20:11:00,34.0,29.0,30.24,North,2,4.0,17.0,83,0.00,,,0.00,,2013-05-04 01:11:00,
2013-05-03 20:21:00,34.0,30.0,30.24,North,10,12.0,23.0,85,0.00,,,0.00,,2013-05-04 01:21:00,
2013-05-03 20:31:00,34.0,30.0,30.24,North,10,12.0,23.0,85,0.00,,,0.00,,2013-05-04 01:31:00,
2013-05-03 20:42:00,34.0,30.0,30.24,North,10,12.0,23.0,85,0.00,,,0.00,,2013-05-04 01:42:00,
2013-05-03 20:52:00,34.0,30.0,30.23,NNE,16,8.0,17.0,85,0.00,,,0.00,,2013-05-04 01:52:00,
2013-05-03 21:02:00,34.0,30.0,30.23,NNE,16,8.0,17.0,85,0.00,,,0.00,,2013-05-04 02:02:00,
2013-05-03 21:11:00,34.0,30.0,30.23,NNE,16,8.0,17.0,85,0.00,,,0.00,,2013-05-04 02:11:00,
2013-05-03 21:21:00,34.0,30.0,30.23,NNE,17,11.0,17.0,85,0.00,,,0.00,,2013-05-04 02:21:00,
2013-05-03 21:32:00,34.0,30.0,30.23,NNE,17,11.0,17.0,85,0.00,,,0.00,,2013-05-04 02:32:00,
2013-05-03 21:42:00,34.0,30.0,30.23,NNE,17,11.0,17.0,85,0.00,,,0.00,,2013-05-04 02:42:00,
2013-05-03 21:52:00,34.0,30.0,30.23,NNE,17,11.0,17.0,85,0.00,,,0.00,,2013-05-04 02:52:00,
2013-05-03 22:02:00,34.0,30.0,30.24,NNE,29,13.0,20.0,86,0.00,,,0.00,,2013-05-04 03:02:00,
2013-05-03 22:11:00,34.0,30.0,30.24,NNE,29,13.0,20.0,86,0.00,,,0.00,,2013-05-04 03:11:00,
2013-05-03 22:22:00,33.0,30.0,30.24,NE,38,8.0,15.0,87,0.00,,,0.00,,2013-05-04 03:22:00,
2013-05-03 22:33:00,33.0,30.0,30.24,NE,38,8.0,15.0,87,0.00,,,0.00,,2013-05-04 03:33:00,
2013-05-03 22:43:00,33.0,30.0,30.24,NE,38,8.0,15.0,87,0.00,,,0.00,,2013-05-04 03:43:00,
2013-05-03 22:53:00,33.0,30.0,30.23,NE,34,10.0,18.0,87,0.00,,,0.00,,2013-05-04 03:53:00,
2013-05-03 23:02:00,33.0,30.0,30.23,NE,34,10.0,18.0,87,0.00,,,0.00,,2013-05-04 04:02:00,
2013-05-03 23:12:00,33.0,30.0,30.23,NE,34,10.0,18.0,87,0.00,,,0.00,,2013-05-04 04:12:00,
2013-05-03 23:22:00,33.0,30.0,30.23,NE,46,15.0,21.0,87,0.00,,,0.00,,2013-05-04 04:22:00,
2013-05-03 23:32:00,33.0,30.0,30.23,NE,46,15.0,21.0,87,0.00,,,0.00,,2013-05-04 04:32:00,
2013-05-03 23:43:00,33.0,30.0,30.23,NE,46,15.0,21.0,87,0.00,,,0.00,,2013-05-04 04:43:00,
2013-05-03 23:52:00,33.0,29.0,30.22,North,0,8.0,14.0,86,0.00,,,0.00,,2013-05-04 04:52:00,